createdAt,value
2023-12-05T00:02:19.177Z,95616.66
2023-12-05T00:04:48.758Z,95613.94
2023-12-05T00:07:16.446Z,95613.69
2023-12-05T00:09:44.062Z,95629.56
2023-12-05T00:12:11.619Z,95624.19
2023-12-05T00:14:39.250Z,95629.00
2023-12-05T00:17:06.818Z,95631.97
2023-12-05T00:19:34.630Z,95624.78
2023-12-05T00:22:03.589Z,95629.50
2023-12-05T00:24:31.152Z,95632.44
2023-12-05T00:26:58.833Z,95635.69
2023-12-05T00:29:26.424Z,95630.25
2023-12-05T00:31:54.257Z,95625.78
2023-12-05T00:34:22.094Z,95630.78
2023-12-05T00:36:50.181Z,95630.50
2023-12-05T00:39:19.170Z,95621.84
2023-12-05T00:41:47.977Z,95630.22
2023-12-05T00:44:15.533Z,95610.47
2023-12-05T00:46:43.108Z,95627.66
2023-12-05T00:49:10.855Z,95618.19
2023-12-05T00:51:38.613Z,95623.44
2023-12-05T00:54:06.248Z,95624.25
2023-12-05T00:56:35.159Z,95619.13
2023-12-05T00:59:02.701Z,95623.44
2023-12-05T01:01:30.444Z,95618.19
2023-12-05T01:03:58.616Z,95615.63
2023-12-05T01:06:26.419Z,95608.84
2023-12-05T01:08:54.072Z,95609.69
2023-12-05T01:11:21.857Z,95615.63
2023-12-05T01:13:50.793Z,95614.50
2023-12-05T01:16:18.367Z,95611.66
2023-12-05T01:18:46.025Z,95617.31
2023-12-05T01:21:13.658Z,95618.63
2023-12-05T01:23:42.328Z,95613.88
2023-12-05T01:26:09.877Z,95616.81
2023-12-05T01:28:37.438Z,95626.78
2023-12-05T01:31:06.748Z,95619.75
2023-12-05T01:33:34.349Z,95619.44
2023-12-05T01:36:01.889Z,95619.16
2023-12-05T01:38:29.494Z,95616.16
2023-12-05T01:40:57.036Z,95618.28
2023-12-05T01:43:24.943Z,95612.84
2023-12-05T01:45:53.354Z,95612.56
2023-12-05T01:48:22.700Z,95615.78
2023-12-05T01:50:50.799Z,95619.03
2023-12-05T01:53:18.860Z,95609.56
2023-12-05T01:55:46.720Z,95617.13
2023-12-05T01:58:15.577Z,95619.50
2023-12-05T02:00:43.537Z,95614.09
2023-12-05T02:03:12.147Z,95615.69
2023-12-05T02:05:41.232Z,95615.41
2023-12-05T02:08:12.653Z,95617.03
2023-12-05T02:10:40.683Z,95608.50
2023-12-05T02:13:08.286Z,95605.94
2023-12-05T02:15:35.939Z,95603.19
2023-12-05T02:18:12.428Z,95600.63
2023-12-05T02:20:48.696Z,95598.06
2023-12-05T02:23:43.478Z,95592.13
2023-12-05T02:26:21.078Z,95595.66
2023-12-05T02:28:50.646Z,95592.94
2023-12-05T02:31:18.741Z,95590.22
2023-12-05T02:33:48.390Z,95591.69
2023-12-05T02:36:38.030Z,95594.09
2023-12-05T02:39:13.433Z,95591.41
2023-12-05T02:41:46.469Z,95594.63
2023-12-05T02:44:17.485Z,95595.78
2023-12-05T02:46:46.560Z,95589.53
2023-12-05T02:49:14.523Z,95595.19
2023-12-05T02:51:42.829Z,95588.91
2023-12-05T02:54:10.425Z,95595.53
2023-12-05T02:56:38.121Z,95597.16
2023-12-05T02:59:06.130Z,95608.09
2023-12-05T03:01:40.593Z,95598.59
2023-12-05T03:04:08.448Z,95609.41
2023-12-05T03:06:36.261Z,95605.88
2023-12-05T03:09:04.855Z,95609.09
2023-12-05T03:11:32.864Z,95606.53
2023-12-05T03:14:00.822Z,95610.72
2023-12-05T03:16:28.499Z,95604.75
2023-12-05T03:18:57.579Z,95616.81
2023-12-05T03:21:25.648Z,95616.16
2023-12-05T03:23:53.251Z,95621.75
2023-12-05T03:26:21.255Z,95617.84
2023-12-05T03:28:50.023Z,95621.41
2023-12-05T03:31:17.655Z,95624.09
2023-12-05T03:33:45.748Z,95630.38
2023-12-05T03:36:15.342Z,95634.69
2023-12-05T03:38:42.912Z,95623.91
2023-12-05T03:41:10.896Z,95630.94
2023-12-05T03:43:38.500Z,95622.59
2023-12-05T03:46:06.585Z,95616.78
2023-12-05T03:48:34.326Z,95604.06
2023-12-05T03:51:02.091Z,95624.94
2023-12-05T03:53:31.144Z,95627.16
2023-12-05T03:55:58.677Z,95625.53
2023-12-05T03:58:26.369Z,95625.69
2023-12-05T04:00:53.981Z,95630.66
2023-12-05T04:03:21.838Z,95630.00
2023-12-05T04:05:49.537Z,95627.75
2023-12-05T04:08:17.100Z,95637.06
2023-12-05T04:10:45.935Z,95646.38
2023-12-05T04:13:13.490Z,95631.91
2023-12-05T04:15:41.700Z,95632.75
2023-12-05T04:18:09.302Z,95636.78
2023-12-05T04:20:36.959Z,95634.88
2023-12-05T04:23:04.547Z,95636.47
2023-12-05T04:25:32.188Z,95630.22
2023-12-05T04:28:01.060Z,95623.47
2023-12-05T04:30:28.646Z,95623.75
2023-12-05T04:32:56.258Z,95626.78
2023-12-05T04:35:23.799Z,95636.69
2023-12-05T04:37:51.318Z,95641.97
2023-12-05T04:40:20.186Z,95636.34
2023-12-05T04:42:48.081Z,95639.06
2023-12-05T04:45:17.361Z,95640.16
2023-12-05T04:47:45.878Z,95648.78
2023-12-05T04:50:13.518Z,95650.72
2023-12-05T04:52:41.065Z,95643.31
2023-12-05T04:55:09.332Z,95643.31
2023-12-05T04:57:36.961Z,95635.59
2023-12-05T05:00:07.129Z,95640.59
2023-12-05T05:02:36.059Z,95639.75
2023-12-05T05:05:03.888Z,95641.53
2023-12-05T05:07:31.633Z,95633.16
2023-12-05T05:09:59.253Z,95636.69
2023-12-05T05:12:27.237Z,95635.91
2023-12-05T05:14:54.821Z,95635.59
2023-12-05T05:17:22.443Z,95635.47
2023-12-05T05:19:51.371Z,95638.03
2023-12-05T05:22:18.919Z,95638.84
2023-12-05T05:24:46.499Z,95635.47
2023-12-05T05:27:14.305Z,95630.16
2023-12-05T05:29:41.902Z,95629.22
2023-12-05T05:32:09.522Z,95631.78
2023-12-05T05:34:37.125Z,95638.69
2023-12-05T05:37:06.165Z,95638.84
2023-12-05T05:39:34.426Z,95630.16
2023-12-05T05:42:01.969Z,95641.25
2023-12-05T05:44:29.815Z,95647.69
2023-12-05T05:46:57.374Z,95648.22
2023-12-05T05:49:25.311Z,95655.00
2023-12-05T05:51:52.939Z,95641.03
2023-12-05T05:54:23.078Z,95650.50
2023-12-05T05:56:50.623Z,95642.81
2023-12-05T05:59:18.349Z,95647.94
2023-12-05T06:01:48.738Z,95657.56
2023-12-05T06:04:16.410Z,95648.53
2023-12-05T06:06:44.040Z,95653.94
2023-12-05T06:09:11.581Z,95654.25
2023-12-05T06:11:40.601Z,95657.75
2023-12-05T06:14:08.294Z,95659.81
2023-12-05T06:16:35.921Z,95666.72
2023-12-05T06:19:03.635Z,95665.75
2023-12-05T06:21:31.258Z,95659.66
2023-12-05T06:24:00.183Z,95658.41
2023-12-05T06:26:27.936Z,95676.13
2023-12-05T06:28:56.871Z,95679.34
2023-12-05T06:31:25.096Z,95664.72
2023-12-05T06:33:52.934Z,95669.88
2023-12-05T06:36:20.665Z,95682.84
2023-12-05T06:38:48.270Z,95683.16
2023-12-05T06:41:15.887Z,95674.13
2023-12-05T06:43:43.457Z,95694.81
2023-12-05T06:46:12.268Z,95670.75
2023-12-05T06:48:39.969Z,95674.00
2023-12-05T06:51:07.879Z,95690.72
2023-12-05T06:53:39.820Z,95679.47
2023-12-05T06:56:15.095Z,95692.19
2023-12-05T06:58:43.204Z,95689.47
2023-12-05T07:01:12.697Z,95679.03
2023-12-05T07:03:47.336Z,95691.88
2023-12-05T07:06:18.695Z,95687.41
2023-12-05T07:08:46.314Z,95692.41
2023-12-05T07:11:13.822Z,95700.94
2023-12-05T07:13:41.420Z,95696.59
2023-12-05T07:16:11.280Z,95699.00
2023-12-05T07:18:40.383Z,95707.38
2023-12-05T07:21:09.451Z,95719.56
2023-12-05T07:23:37.067Z,95712.81
2023-12-05T07:26:04.920Z,95712.97
2023-12-05T07:28:32.533Z,95723.25
2023-12-05T07:31:00.172Z,95720.81
2023-12-05T07:33:27.924Z,95729.19
2023-12-05T07:35:58.763Z,95731.44
2023-12-05T07:38:26.362Z,95738.09
2023-12-05T07:40:54.207Z,95734.41
2023-12-05T07:43:21.748Z,95732.78
2023-12-05T07:45:49.450Z,95736.31
2023-12-05T07:48:17.163Z,95758.78
2023-12-05T07:50:45.074Z,95733.09
2023-12-05T07:53:14.090Z,95744.28
2023-12-05T07:55:41.676Z,95740.94
2023-12-05T07:58:09.214Z,95740.13
2023-12-05T08:00:39.884Z,95751.88
2023-12-05T08:03:07.537Z,95753.34
2023-12-05T08:05:35.453Z,95747.91
2023-12-05T08:08:03.018Z,95750.31
2023-12-05T08:10:32.108Z,95753.56
2023-12-05T08:12:59.744Z,95756.00
2023-12-05T08:15:27.410Z,95753.13
2023-12-05T08:17:55.042Z,95745.56
2023-12-05T08:20:22.985Z,95754.38
2023-12-05T08:22:50.782Z,95750.84
2023-12-05T08:25:18.550Z,95749.88
2023-12-05T08:27:47.506Z,95750.56
2023-12-05T08:30:15.715Z,95747.03
2023-12-05T08:32:43.954Z,95748.66
2023-12-05T08:35:11.741Z,95752.19
2023-12-05T08:37:39.477Z,95758.13
2023-12-05T08:40:08.478Z,95764.06
2023-12-05T08:42:36.320Z,95757.00
2023-12-05T08:45:05.965Z,95761.88
2023-12-05T08:47:33.518Z,95758.22
2023-12-05T08:50:01.058Z,95760.63
2023-12-05T08:52:28.583Z,95758.06
2023-12-05T08:54:56.232Z,95751.81
2023-12-05T08:57:24.095Z,95749.09
2023-12-05T08:59:51.625Z,95751.38
2023-12-05T09:02:22.212Z,95751.25
2023-12-05T09:04:49.933Z,95755.94
2023-12-05T09:07:18.598Z,95759.66
2023-12-05T09:09:46.356Z,95760.06
2023-12-05T09:12:13.990Z,95756.72
2023-12-05T09:14:41.744Z,95766.56
2023-12-05T09:17:11.164Z,95768.69
2023-12-05T09:19:40.247Z,95760.69
2023-12-05T09:22:07.805Z,95759.28
2023-12-05T09:24:35.493Z,95767.38
2023-12-05T09:27:03.777Z,95765.81
2023-12-05T09:29:32.183Z,95767.00
2023-12-05T09:31:59.723Z,95769.91
2023-12-05T09:34:27.334Z,95776.19
2023-12-05T09:36:56.282Z,95773.84
2023-12-05T09:39:24.686Z,95774.88
2023-12-05T09:41:54.232Z,95781.00
2023-12-05T09:44:23.315Z,95788.78
2023-12-05T09:46:54.877Z,95777.72
2023-12-05T09:49:27.954Z,95786.63
2023-12-05T09:51:57.129Z,95783.44
2023-12-05T09:54:27.050Z,95787.00
2023-12-05T09:56:56.514Z,95788.81
2023-12-05T09:59:24.282Z,95787.06
2023-12-05T10:01:54.861Z,95785.50
2023-12-05T10:04:24.281Z,95781.34
2023-12-05T10:06:53.447Z,95777.16
2023-12-05T10:09:24.269Z,95776.25
2023-12-05T10:11:52.612Z,95779.66
2023-12-05T10:14:20.317Z,95774.50
2023-12-05T10:16:48.763Z,95782.25
2023-12-05T10:19:16.686Z,95783.41
2023-12-05T10:21:45.405Z,95792.75
2023-12-05T10:24:40.084Z,95785.50
2023-12-05T10:27:09.036Z,95780.53
2023-12-05T10:29:39.259Z,95776.47
2023-12-05T10:32:08.539Z,95779.72
2023-12-05T10:34:50.154Z,95779.72
2023-12-05T10:37:22.332Z,95777.97
2023-12-05T10:39:52.119Z,95777.13
2023-12-05T10:42:20.192Z,95779.88
2023-12-05T10:44:48.532Z,95771.16
2023-12-05T10:47:19.288Z,95763.38
2023-12-05T10:49:50.145Z,95771.78
2023-12-05T10:52:17.988Z,95768.50
2023-12-05T10:54:45.896Z,95765.56
2023-12-05T10:57:14.831Z,95770.53
2023-12-05T10:59:42.488Z,95767.44
2023-12-05T11:02:14.300Z,95770.28
2023-12-05T11:04:42.804Z,95763.41
2023-12-05T11:07:10.582Z,95775.13
2023-12-05T11:09:38.165Z,95764.50
2023-12-05T11:12:07.990Z,95758.88
2023-12-05T11:14:41.689Z,95763.25
2023-12-05T11:17:12.691Z,95758.66
2023-12-05T11:20:02.205Z,95757.59
2023-12-05T11:22:39.553Z,95756.38
2023-12-05T11:25:30.828Z,95759.50
2023-12-05T11:28:09.395Z,95758.56
2023-12-05T11:31:07.602Z,95748.41
2023-12-05T11:33:49.901Z,95753.78
2023-12-05T11:36:30.653Z,95748.94
2023-12-05T11:39:00.505Z,95753.22
2023-12-05T11:41:28.862Z,95747.16
2023-12-05T11:44:20.075Z,95747.09
2023-12-05T11:46:49.636Z,95742.81
2023-12-05T11:49:35.767Z,95752.13
2023-12-05T11:52:10.336Z,95749.41
2023-12-05T11:54:38.169Z,95756.84
2023-12-05T11:57:13.808Z,95747.31
2023-12-05T11:59:42.232Z,95750.75
2023-12-05T12:02:14.237Z,95750.34
2023-12-05T12:04:42.097Z,95763.59
2023-12-05T12:07:09.763Z,95763.63
2023-12-05T12:09:42.072Z,95762.63
2023-12-05T12:12:11.160Z,95763.63
2023-12-05T12:14:42.054Z,95751.38
2023-12-05T12:17:12.771Z,95746.94
2023-12-05T12:19:40.659Z,95747.50
2023-12-05T12:22:09.675Z,95752.22
2023-12-05T12:24:38.552Z,95747.81
2023-12-05T12:27:08.211Z,95742.75
2023-12-05T12:29:37.135Z,95742.91
2023-12-05T12:32:13.584Z,95736.88
2023-12-05T12:34:44.647Z,95740.22
2023-12-05T12:37:18.176Z,95733.97
2023-12-05T12:39:50.691Z,95728.34
2023-12-05T12:42:18.976Z,95730.69
2023-12-05T12:44:47.343Z,95739.03
2023-12-05T12:47:17.088Z,95726.78
2023-12-05T12:49:44.818Z,95727.00
2023-12-05T12:52:12.681Z,95729.34
2023-12-05T12:54:41.409Z,95734.69
2023-12-05T12:57:09.096Z,95732.44
2023-12-05T12:59:37.810Z,95739.63
2023-12-05T13:02:07.843Z,95735.44
2023-12-05T13:04:38.484Z,95737.59
2023-12-05T13:07:06.548Z,95736.19
2023-12-05T13:09:34.590Z,95728.78
2023-12-05T13:12:02.477Z,95729.50
2023-12-05T13:14:30.041Z,95733.63
2023-12-05T13:16:57.588Z,95731.03
2023-12-05T13:19:28.131Z,95741.00
2023-12-05T13:21:57.368Z,95741.00
2023-12-05T13:24:24.928Z,95729.00
2023-12-05T13:26:52.924Z,95736.16
2023-12-05T13:29:21.206Z,95748.97
2023-12-05T13:31:48.813Z,95751.75
2023-12-05T13:34:16.586Z,95751.13
2023-12-05T13:36:44.586Z,95748.28
2023-12-05T13:39:16.313Z,95751.22
2023-12-05T13:41:44.408Z,95760.41
2023-12-05T13:44:11.907Z,95757.91
2023-12-05T13:46:40.275Z,95757.03
2023-12-05T13:49:08.222Z,95760.53
2023-12-05T13:51:36.520Z,95764.38
2023-12-05T13:54:05.080Z,95769.03
2023-12-05T13:56:34.369Z,95772.56
2023-12-05T13:59:02.022Z,95766.03
2023-12-05T14:01:29.685Z,95768.06
2023-12-05T14:03:58.363Z,95767.34
2023-12-05T14:06:26.168Z,95761.13
2023-12-05T14:08:53.765Z,95769.44
2023-12-05T14:11:21.257Z,95778.53
2023-12-05T14:13:50.150Z,95778.59
2023-12-05T14:16:17.778Z,95772.69
2023-12-05T14:18:45.336Z,95782.78
2023-12-05T14:21:12.906Z,95783.47
2023-12-05T14:23:40.681Z,95787.75
2023-12-05T14:26:08.449Z,95792.63
2023-12-05T14:28:35.020Z,95794.97
2023-12-05T14:31:03.979Z,95799.03
2023-12-05T14:33:31.673Z,95799.28
2023-12-05T14:35:59.285Z,95796.72
2023-12-05T14:38:26.943Z,95798.38
2023-12-05T14:40:54.459Z,95794.25
2023-12-05T14:43:21.968Z,95797.03
2023-12-05T14:45:49.525Z,95796.28
2023-12-05T14:48:18.476Z,95799.53
2023-12-05T14:50:46.084Z,95794.06
2023-12-05T14:53:13.759Z,95801.88
2023-12-05T14:55:41.334Z,95796.41
2023-12-05T14:58:09.347Z,95788.34
2023-12-05T15:00:37.424Z,95800.97
2023-12-05T15:03:05.456Z,95793.56
2023-12-05T15:05:34.383Z,95800.03
2023-12-05T15:08:03.089Z,95801.97
2023-12-05T15:10:31.752Z,95795.88
2023-12-05T15:12:59.324Z,95794.75
2023-12-05T15:15:27.335Z,95799.63
2023-12-05T15:17:55.028Z,95797.53
2023-12-05T15:20:24.249Z,95799.16
2023-12-05T15:22:54.210Z,95811.13
2023-12-05T15:25:21.983Z,95810.19
2023-12-05T15:27:49.625Z,95809.88
2023-12-05T15:30:17.348Z,95813.56
2023-12-05T15:32:51.367Z,95811.47
2023-12-05T15:35:19.803Z,95810.03
2023-12-05T15:37:47.390Z,95809.22
2023-12-05T15:40:17.257Z,95811.16
2023-12-05T15:42:46.094Z,95812.94
2023-12-05T15:45:14.351Z,95817.28
2023-12-05T15:47:44.057Z,95815.03
2023-12-05T15:50:12.149Z,95816.97
2023-12-05T15:52:40.082Z,95823.44
2023-12-05T15:55:08.279Z,95826.34
2023-12-05T15:57:37.607Z,95831.81
2023-12-05T16:00:06.260Z,95826.19
2023-12-05T16:02:33.915Z,95829.91
2023-12-05T16:05:01.601Z,95832.50
2023-12-05T16:07:29.420Z,95836.03
2023-12-05T16:09:57.127Z,95829.06
2023-12-05T16:12:24.754Z,95836.03
2023-12-05T16:14:53.950Z,95826.69
2023-12-05T16:17:21.674Z,95824.41
2023-12-05T16:19:49.572Z,95828.28
2023-12-05T16:22:17.185Z,95825.22
2023-12-05T16:24:44.758Z,95820.38
2023-12-05T16:27:12.355Z,95825.88
2023-12-05T16:29:39.898Z,95833.75
2023-12-05T16:32:09.315Z,95833.28
2023-12-05T16:34:36.968Z,95829.22
2023-12-05T16:37:04.887Z,95825.19
2023-12-05T16:39:32.575Z,95827.97
2023-12-05T16:42:00.210Z,95825.81
2023-12-05T16:44:27.804Z,95833.09
2023-12-05T16:46:55.362Z,95837.75
2023-12-05T16:49:24.984Z,95837.91
2023-12-05T16:51:53.247Z,95851.00
2023-12-05T16:54:20.833Z,95852.13
2023-12-05T16:56:48.693Z,95847.25
2023-12-05T16:59:25.037Z,95846.47
2023-12-05T17:01:56.291Z,95855.97
2023-12-05T17:04:25.310Z,95849.03
2023-12-05T17:06:55.638Z,95858.38
2023-12-05T17:09:23.409Z,95854.03
2023-12-05T17:11:50.936Z,95851.63
2023-12-05T17:14:18.444Z,95853.41
2023-12-05T17:16:45.959Z,95855.16
2023-12-05T17:19:13.597Z,95856.91
2023-12-05T17:21:42.532Z,95858.69
2023-12-05T17:24:10.133Z,95852.75
2023-12-05T17:26:37.648Z,95858.84
2023-12-05T17:29:05.552Z,95852.09
2023-12-05T17:31:33.145Z,95856.28
2023-12-05T17:34:01.150Z,95861.44
2023-12-05T17:36:28.859Z,95862.09
2023-12-05T17:38:57.781Z,95862.88
2023-12-05T17:41:25.334Z,95854.03
2023-12-05T17:43:52.853Z,95865.97
2023-12-05T17:46:20.429Z,95868.41
2023-12-05T17:48:48.123Z,95867.41
2023-12-05T17:51:15.769Z,95870.81
2023-12-05T17:53:43.355Z,95864.53
2023-12-05T17:56:12.673Z,95866.13
2023-12-05T17:58:40.318Z,95864.34
2023-12-05T18:01:09.036Z,95860.97
2023-12-05T18:03:36.771Z,95860.19
2023-12-05T18:06:04.738Z,95870.50
2023-12-05T18:08:32.372Z,95865.50
2023-12-05T18:11:00.264Z,95865.66
2023-12-05T18:13:29.186Z,95870.81
2023-12-05T18:15:56.775Z,95873.41
2023-12-05T18:18:24.650Z,95884.69
2023-12-05T18:20:52.321Z,95886.59
2023-12-05T18:23:19.887Z,95890.16
2023-12-05T18:25:47.436Z,95892.09
2023-12-05T18:28:16.314Z,95887.88
2023-12-05T18:30:45.305Z,95887.22
2023-12-05T18:33:13.123Z,95894.00
2023-12-05T18:35:40.731Z,95883.03
2023-12-05T18:38:09.122Z,95893.38
2023-12-05T18:40:36.643Z,95901.91
2023-12-05T18:43:04.414Z,95896.88
2023-12-05T18:45:32.923Z,95907.38
2023-12-05T18:48:01.933Z,95900.75
2023-12-05T18:50:29.580Z,95912.03
2023-12-05T18:52:58.276Z,95910.44
2023-12-05T18:55:26.135Z,95909.13
2023-12-05T18:57:54.948Z,95912.00
2023-12-05T19:00:22.554Z,95917.97
2023-12-05T19:02:51.273Z,95909.41
2023-12-05T19:05:20.298Z,95915.56
2023-12-05T19:07:48.779Z,95923.28
2023-12-05T19:10:16.472Z,95922.16
2023-12-05T19:12:46.096Z,95919.72
2023-12-05T19:15:13.811Z,95929.25
2023-12-05T19:17:41.533Z,95920.06
2023-12-05T19:20:10.240Z,95923.75
2023-12-05T19:22:38.155Z,95920.19
2023-12-05T19:25:07.221Z,95926.00
2023-12-05T19:27:35.675Z,95923.28
2023-12-05T19:30:05.022Z,95922.31
2023-12-05T19:32:32.663Z,95926.53
2023-12-05T19:35:00.384Z,95920.56
2023-12-05T19:37:28.055Z,95923.16
2023-12-05T19:39:56.963Z,95930.88
2023-12-05T19:42:24.583Z,95925.88
2023-12-05T19:44:52.160Z,95922.63
2023-12-05T19:47:23.800Z,95931.31
2023-12-05T19:49:51.956Z,95926.34
2023-12-05T19:52:19.753Z,95926.63
2023-12-05T19:54:47.343Z,95926.63
2023-12-05T19:57:16.417Z,95925.81
2023-12-05T19:59:45.704Z,95930.97
2023-12-05T20:02:13.371Z,95927.75
2023-12-05T20:04:41.300Z,95936.47
2023-12-05T20:07:09.312Z,95928.88
2023-12-05T20:09:38.105Z,95933.22
2023-12-05T20:12:06.510Z,95924.84
2023-12-05T20:14:35.455Z,95928.53
2023-12-05T20:17:04.335Z,95931.25
2023-12-05T20:19:32.362Z,95930.59
2023-12-05T20:22:00.221Z,95930.91
2023-12-05T20:24:27.914Z,95931.19
2023-12-05T20:26:55.454Z,95929.09
2023-12-05T20:29:24.472Z,95935.34
2023-12-05T20:31:53.380Z,95930.50
2023-12-05T20:34:21.008Z,95937.41
2023-12-05T20:36:48.654Z,95937.59
2023-12-05T20:39:16.235Z,95935.31
2023-12-05T20:41:43.870Z,95936.28
2023-12-05T20:44:11.685Z,95926.63
2023-12-05T20:46:39.252Z,95931.78
2023-12-05T20:49:08.286Z,95937.59
2023-12-05T20:51:35.886Z,95934.34
2023-12-05T20:54:03.421Z,95936.94
2023-12-05T20:56:30.993Z,95943.69
2023-12-05T20:58:58.806Z,95943.56
2023-12-05T21:01:26.399Z,95938.41
2023-12-05T21:03:54.368Z,95937.59
2023-12-05T21:06:23.548Z,95949.50
2023-12-05T21:09:10.776Z,95944.34
2023-12-05T21:11:38.578Z,95942.75
2023-12-05T21:14:06.912Z,95937.75
2023-12-05T21:16:35.363Z,95943.69
2023-12-05T21:19:03.025Z,95943.56
2023-12-05T21:21:32.030Z,95939.84
2023-12-05T21:23:59.684Z,95941.31
2023-12-05T21:26:27.228Z,95931.81
2023-12-05T21:28:54.835Z,95931.81
2023-12-05T21:31:22.374Z,95937.28
2023-12-05T21:33:50.043Z,95943.38
2023-12-05T21:36:24.899Z,95944.34
2023-12-05T21:38:58.363Z,95942.44
2023-12-05T21:41:27.082Z,95945.94
2023-12-05T21:43:54.632Z,95946.78
2023-12-05T21:46:23.842Z,95946.47
2023-12-05T21:48:51.823Z,95950.50
2023-12-05T21:51:19.522Z,95947.78
2023-12-05T21:53:47.091Z,95954.53
2023-12-05T21:56:16.035Z,95954.53
2023-12-05T21:58:43.573Z,95961.34
2023-12-05T22:01:12.596Z,95957.94
2023-12-05T22:03:40.602Z,95965.38
2023-12-05T22:06:09.266Z,95969.41
2023-12-05T22:08:37.198Z,95960.88
2023-12-05T22:11:07.075Z,95959.91
2023-12-05T22:13:35.942Z,95965.88
2023-12-05T22:16:05.152Z,95962.19
2023-12-05T22:18:33.070Z,95967.69
2023-12-05T22:21:02.410Z,95969.31
2023-12-05T22:23:33.569Z,95968.34
2023-12-05T22:26:03.153Z,95961.41
2023-12-05T22:28:32.608Z,95969.81
2023-12-05T22:31:01.706Z,95971.28
2023-12-05T22:33:29.661Z,95970.31
2023-12-05T22:35:58.154Z,95964.19
2023-12-05T22:38:25.854Z,95965.16
2023-12-05T22:40:53.508Z,95970.97
2023-12-05T22:43:21.134Z,95976.00
2023-12-05T22:45:48.740Z,95967.13
2023-12-05T22:48:17.795Z,95967.78
2023-12-05T22:50:45.532Z,95975.34
2023-12-05T22:53:13.103Z,95985.66
2023-12-05T22:55:40.866Z,95981.03
2023-12-05T22:58:08.487Z,95983.47
2023-12-05T23:00:36.190Z,95973.13
2023-12-05T23:03:03.877Z,95982.34
2023-12-05T23:05:32.855Z,95987.16
2023-12-05T23:08:00.485Z,95981.88
2023-12-05T23:10:28.190Z,95983.31
2023-12-05T23:12:55.826Z,95983.31
2023-12-05T23:15:23.457Z,95982.19
2023-12-05T23:17:51.066Z,95983.03
2023-12-05T23:20:18.801Z,95981.25
2023-12-05T23:22:47.706Z,95983.97
2023-12-05T23:25:15.666Z,95983.03
2023-12-05T23:27:43.330Z,95990.59
2023-12-05T23:30:12.791Z,95984.63
2023-12-05T23:32:40.418Z,95987.88
2023-12-05T23:35:08.616Z,95989.34
2023-12-05T23:37:36.197Z,95985.47
2023-12-05T23:40:06.224Z,95985.34
2023-12-05T23:42:33.902Z,95986.94
2023-12-05T23:45:01.585Z,95984.22
2023-12-05T23:47:29.572Z,95977.94
2023-12-05T23:49:57.741Z,95981.47
2023-12-05T23:52:25.281Z,95980.50
2023-12-05T23:54:52.931Z,95982.44
2023-12-05T23:57:22.073Z,95973.88
2023-12-05T23:59:49.832Z,95980.84
